Time;durP1;ratioP1;P1;durP2;ratioP2;P2;SDS_P1;SDS_P2;PMS_P1;PMS_P2;Temp;Humidity;BMP_temperature;BMP_pressure;BME280_temperature;BME280_humidity;BME280_pressure;Samples;Min_cycle;Max_cycle;Signal;HPM_P1;HPM_P2
2021/11/16 00:00:41;;;;;;;;;;;4.70;99.90;;;;;;5093512;28;19908;-75
2021/11/16 00:03:08;;;;;;;;;;;4.70;99.90;;;;;;5093906;28;19916;-75
2021/11/16 00:05:33;;;;;;;;;;;4.70;99.90;;;;;;5093895;28;19908;-75
2021/11/16 00:07:59;;;;;;;;;;;4.70;99.90;;;;;;5093830;28;20427;-75
2021/11/16 00:10:24;;;;;;;;;;;4.60;99.90;;;;;;5093142;28;20431;-75
2021/11/16 00:12:50;;;;;;;;;;;4.70;99.90;;;;;;5093733;28;20326;-75
2021/11/16 00:15:16;;;;;;;;;;;4.70;99.90;;;;;;5075644;28;19912;-75
2021/11/16 00:17:41;;;;;;;;;;;4.70;99.90;;;;;;5093548;28;19956;-75
2021/11/16 00:20:10;;;;;;;;;;;4.60;99.90;;;;;;5093296;28;19915;-75
2021/11/16 00:22:36;;;;;;;;;;;4.70;99.90;;;;;;5073931;28;20371;-75
2021/11/16 00:27:32;;;;;;;;;;;4.70;99.90;;;;;;5093525;28;19908;-75
2021/11/16 00:29:57;;;;;;;;;;;4.70;99.90;;;;;;5093274;28;20217;-73
2021/11/16 00:32:23;;;;;;;;;;;4.70;99.90;;;;;;5093722;28;20294;-73
2021/11/16 00:34:49;;;;;;;;;;;4.70;99.90;;;;;;5093343;28;19908;-73
2021/11/16 00:37:16;;;;;;;;;;;4.70;99.90;;;;;;5093272;28;19908;-75
2021/11/16 00:39:41;;;;;;;;;;;4.70;99.90;;;;;;5092835;28;19912;-75
2021/11/16 00:42:07;;;;;;;;;;;4.60;99.90;;;;;;5093143;28;19915;-75
2021/11/16 00:44:33;;;;;;;;;;;4.60;99.90;;;;;;5093131;28;19912;-73
2021/11/16 00:46:58;;;;;;;;;;;4.60;99.90;;;;;;5092953;28;20391;-75
2021/11/16 00:49:24;;;;;;;;;;;4.60;99.90;;;;;;5093022;28;19914;-75
2021/11/16 00:51:49;;;;;;;;;;;4.60;99.90;;;;;;5092660;28;19953;-75
2021/11/16 00:54:14;;;;;;;;;;;4.60;99.90;;;;;;5093264;28;19908;-75
2021/11/16 00:56:40;;;;;;;;;;;4.60;99.90;;;;;;5054671;28;19908;-75
2021/11/16 00:59:06;;;;;;;;;;;4.60;99.90;;;;;;5079112;28;20359;-75
2021/11/16 01:01:31;;;;;;;;;;;4.60;99.90;;;;;;5073895;28;20330;-75
2021/11/16 01:03:57;;;;;;;;;;;4.60;99.90;;;;;;5092807;28;19920;-75
2021/11/16 01:06:22;;;;;;;;;;;4.60;99.90;;;;;;5092826;28;19908;-76
2021/11/16 01:08:48;;;;;;;;;;;4.60;99.90;;;;;;5092542;28;20000;-75
2021/11/16 01:11:13;;;;;;;;;;;4.60;99.90;;;;;;5092114;28;20293;-75
2021/11/16 01:13:39;;;;;;;;;;;4.50;99.90;;;;;;5092711;28;20374;-75
2021/11/16 01:16:05;;;;;;;;;;;4.50;99.90;;;;;;5092523;28;19908;-75
2021/11/16 01:18:31;;;;;;;;;;;4.60;99.90;;;;;;5092669;28;20274;-75
2021/11/16 01:20:57;;;;;;;;;;;4.50;99.90;;;;;;5092086;28;19908;-75
2021/11/16 01:23:23;;;;;;;;;;;4.50;99.90;;;;;;5092315;28;19912;-75
2021/11/16 01:25:49;;;;;;;;;;;4.50;99.90;;;;;;5092412;28;19914;-75
2021/11/16 01:28:18;;;;;;;;;;;4.50;99.90;;;;;;5092866;28;19908;-75
2021/11/16 01:30:46;;;;;;;;;;;4.50;99.90;;;;;;5091977;28;20367;-75
2021/11/16 01:33:14;;;;;;;;;;;4.50;99.90;;;;;;5083851;28;20298;-75
2021/11/16 01:35:40;;;;;;;;;;;4.50;99.90;;;;;;5071493;28;19909;-75
2021/11/16 01:38:08;;;;;;;;;;;4.50;99.90;;;;;;5071890;28;19912;-75
2021/11/16 01:40:34;;;;;;;;;;;4.50;99.90;;;;;;5071441;28;19908;-75
2021/11/16 01:43:01;;;;;;;;;;;4.50;99.90;;;;;;5071812;28;19912;-75
2021/11/16 01:45:27;;;;;;;;;;;4.50;99.90;;;;;;5071811;28;19954;-75
2021/11/16 01:47:52;;;;;;;;;;;4.50;99.90;;;;;;5071723;28;19938;-75
2021/11/16 01:50:20;;;;;;;;;;;4.50;99.90;;;;;;5071209;28;20374;-75
2021/11/16 01:52:46;;;;;;;;;;;4.50;99.90;;;;;;5071817;28;20061;-75
2021/11/16 01:55:13;;;;;;;;;;;4.50;99.90;;;;;;5071607;28;19962;-75
2021/11/16 01:57:38;;;;;;;;;;;4.50;99.90;;;;;;5071674;28;20264;-75
2021/11/16 02:00:06;;;;;;;;;;;4.50;99.90;;;;;;5071182;28;19915;-75
2021/11/16 02:02:31;;;;;;;;;;;4.50;99.90;;;;;;5073493;28;20291;-75
2021/11/16 02:04:57;;;;;;;;;;;4.40;99.90;;;;;;5091426;28;19908;-75
2021/11/16 02:07:22;;;;;;;;;;;4.50;99.90;;;;;;5091818;28;19909;-75
2021/11/16 02:09:48;;;;;;;;;;;4.40;99.90;;;;;;5091262;28;19923;-75
2021/11/16 02:12:13;;;;;;;;;;;4.40;99.90;;;;;;5091908;28;19915;-75
2021/11/16 02:14:39;;;;;;;;;;;4.40;99.90;;;;;;5091627;28;19937;-75
2021/11/16 02:17:05;;;;;;;;;;;4.40;99.90;;;;;;5092163;28;19908;-75
2021/11/16 02:19:31;;;;;;;;;;;4.40;99.90;;;;;;5091309;28;19914;-75
2021/11/16 02:21:57;;;;;;;;;;;4.40;99.90;;;;;;5091213;28;19931;-75
2021/11/16 02:24:23;;;;;;;;;;;4.40;99.90;;;;;;5091436;28;19912;-75
2021/11/16 02:26:48;;;;;;;;;;;4.30;99.90;;;;;;5091560;28;19915;-75
2021/11/16 02:29:14;;;;;;;;;;;4.30;99.90;;;;;;5091367;28;19951;-75
2021/11/16 02:31:40;;;;;;;;;;;4.40;99.90;;;;;;5090988;28;19931;-75
2021/11/16 02:34:06;;;;;;;;;;;4.30;99.90;;;;;;5091034;28;19961;-75
2021/11/16 02:36:32;;;;;;;;;;;4.30;99.90;;;;;;5091319;28;19915;-75
2021/11/16 02:38:58;;;;;;;;;;;4.30;99.90;;;;;;5091405;28;19994;-75
2021/11/16 02:41:29;;;;;;;;;;;4.30;99.90;;;;;;5089110;28;20294;-75
2021/11/16 02:43:55;;;;;;;;;;;4.30;99.90;;;;;;5070981;28;19912;-75
2021/11/16 02:46:21;;;;;;;;;;;4.40;99.90;;;;;;5071159;28;20307;-75
2021/11/16 02:48:46;;;;;;;;;;;4.30;99.90;;;;;;5073640;28;19908;-75
2021/11/16 02:51:12;;;;;;;;;;;4.30;99.90;;;;;;5074835;28;19912;-75
2021/11/16 02:53:38;;;;;;;;;;;4.30;99.90;;;;;;5075457;28;19912;-75
2021/11/16 02:56:08;;;;;;;;;;;4.20;99.90;;;;;;5075442;28;20268;-75
2021/11/16 02:58:34;;;;;;;;;;;4.20;99.90;;;;;;5075094;28;19908;-75
2021/11/16 03:01:03;;;;;;;;;;;4.20;99.90;;;;;;5074602;28;20296;-75
2021/11/16 03:03:29;;;;;;;;;;;4.20;99.90;;;;;;5075014;28;19923;-75
2021/11/16 03:05:54;;;;;;;;;;;4.30;99.90;;;;;;5075083;28;20333;-75
2021/11/16 03:08:23;;;;;;;;;;;4.20;99.90;;;;;;5074955;28;19908;-75
2021/11/16 03:10:51;;;;;;;;;;;4.20;99.90;;;;;;5074313;28;19916;-75
2021/11/16 03:13:17;;;;;;;;;;;4.20;99.90;;;;;;5091250;28;20021;-75
2021/11/16 03:15:43;;;;;;;;;;;4.30;99.90;;;;;;5072343;28;19909;-75
2021/11/16 03:18:09;;;;;;;;;;;4.20;99.90;;;;;;5063777;28;19908;-75
2021/11/16 03:20:35;;;;;;;;;;;4.20;99.90;;;;;;5094610;28;19965;-75
2021/11/16 03:23:11;;;;;;;;;;;4.20;99.90;;;;;;5094921;28;19919;-75
2021/11/16 03:25:41;;;;;;;;;;;4.20;99.90;;;;;;5095366;28;19908;-75
2021/11/16 03:28:10;;;;;;;;;;;4.10;99.90;;;;;;5095397;28;19908;-75
2021/11/16 03:30:35;;;;;;;;;;;4.20;99.90;;;;;;5094354;28;20002;-75
2021/11/16 03:33:01;;;;;;;;;;;4.20;99.90;;;;;;5095016;28;20362;-75
2021/11/16 03:35:27;;;;;;;;;;;4.20;99.90;;;;;;5094808;28;19908;-75
2021/11/16 03:37:55;;;;;;;;;;;4.20;99.90;;;;;;5095226;28;19979;-75
2021/11/16 03:40:22;;;;;;;;;;;4.20;99.90;;;;;;5094497;28;19946;-75
2021/11/16 03:42:48;;;;;;;;;;;4.20;99.90;;;;;;5094223;28;20011;-75
2021/11/16 03:45:15;;;;;;;;;;;4.20;99.90;;;;;;5095187;28;19908;-75
2021/11/16 03:47:41;;;;;;;;;;;4.20;99.90;;;;;;5085616;28;19915;-75
2021/11/16 03:50:08;;;;;;;;;;;4.20;99.90;;;;;;5092984;28;19908;-75
2021/11/16 03:52:38;;;;;;;;;;;4.20;99.90;;;;;;5094030;28;20413;-75
2021/11/16 03:55:04;;;;;;;;;;;4.10;99.90;;;;;;5094262;28;19909;-75
2021/11/16 03:57:30;;;;;;;;;;;4.20;99.90;;;;;;5093831;28;19912;-75
2021/11/16 03:59:55;;;;;;;;;;;4.10;99.90;;;;;;5093452;28;20374;-75
2021/11/16 04:02:21;;;;;;;;;;;4.10;99.90;;;;;;5075750;28;19915;-75
2021/11/16 04:04:50;;;;;;;;;;;4.10;99.90;;;;;;5093970;28;19919;-75
2021/11/16 04:07:16;;;;;;;;;;;4.00;99.90;;;;;;5093866;28;20282;-75
2021/11/16 04:09:43;;;;;;;;;;;4.00;99.90;;;;;;5093326;28;19912;-75
2021/11/16 04:12:09;;;;;;;;;;;4.00;99.90;;;;;;5093456;28;19957;-75
2021/11/16 04:14:34;;;;;;;;;;;4.00;99.90;;;;;;5093821;28;19908;-76
2021/11/16 04:17:00;;;;;;;;;;;4.00;99.90;;;;;;5093731;28;19998;-75
2021/11/16 04:19:25;;;;;;;;;;;3.90;99.90;;;;;;5093565;28;20390;-75
2021/11/16 04:21:51;;;;;;;;;;;3.80;99.90;;;;;;5079851;28;19908;-75
2021/11/16 04:24:16;;;;;;;;;;;3.80;99.90;;;;;;5073115;28;20405;-75
2021/11/16 04:26:42;;;;;;;;;;;3.80;99.90;;;;;;5073055;28;19966;-75
2021/11/16 04:29:08;;;;;;;;;;;3.80;99.90;;;;;;5073357;28;20341;-75
2021/11/16 04:31:33;;;;;;;;;;;3.80;99.90;;;;;;5072860;28;19909;-75
2021/11/16 04:34:03;;;;;;;;;;;3.80;99.90;;;;;;5073527;28;19909;-75
2021/11/16 04:36:28;;;;;;;;;;;3.90;99.90;;;;;;5073221;28;20431;-75
2021/11/16 04:38:54;;;;;;;;;;;3.80;99.90;;;;;;5073076;28;20007;-75
2021/11/16 04:41:19;;;;;;;;;;;3.90;99.90;;;;;;5072360;28;19909;-75
2021/11/16 04:43:45;;;;;;;;;;;3.80;99.90;;;;;;5072998;28;19912;-75
2021/11/16 04:46:16;;;;;;;;;;;3.80;99.90;;;;;;5073008;28;20290;-75
2021/11/16 04:53:59;;;;;;;;;;;3.70;99.90;;;;;;5092734;28;19919;-75
2021/11/16 05:04:33;;;;;;;;;;;3.70;99.90;;;;;;5093096;28;20362;-75
2021/11/16 05:07:00;;;;;;;;;;;3.70;99.90;;;;;;5092759;28;19939;-75
2021/11/16 05:09:26;;;;;;;;;;;3.70;99.90;;;;;;5092576;28;19908;-75
2021/11/16 05:11:51;;;;;;;;;;;3.70;99.90;;;;;;5091388;28;20363;-75
2021/11/16 05:14:17;;;;;;;;;;;3.70;99.90;;;;;;5092538;28;19908;-75
2021/11/16 05:16:42;;;;;;;;;;;3.70;99.90;;;;;;5092464;28;19914;-75
2021/11/16 05:19:08;;;;;;;;;;;3.80;99.90;;;;;;5092533;28;19908;-75
2021/11/16 05:21:33;;;;;;;;;;;3.70;99.90;;;;;;5080966;28;19997;-75
2021/11/16 05:24:00;;;;;;;;;;;3.70;99.90;;;;;;5072039;28;19913;-75
2021/11/16 05:26:27;;;;;;;;;;;3.80;99.90;;;;;;5071999;28;19938;-75
2021/11/16 05:28:54;;;;;;;;;;;3.80;99.90;;;;;;5072077;28;20167;-75
2021/11/16 05:31:21;;;;;;;;;;;3.80;99.90;;;;;;5053370;28;19947;-75
2021/11/16 05:33:48;;;;;;;;;;;3.90;99.90;;;;;;5072027;28;19991;-75
2021/11/16 05:36:16;;;;;;;;;;;3.90;99.90;;;;;;5071803;28;20391;-75
2021/11/16 05:38:41;;;;;;;;;;;3.90;99.90;;;;;;5071957;28;19915;-75
2021/11/16 05:41:07;;;;;;;;;;;3.90;99.90;;;;;;5071275;28;19909;-75
2021/11/16 05:43:33;;;;;;;;;;;3.90;99.90;;;;;;5053749;28;19916;-75
2021/11/16 05:45:59;;;;;;;;;;;3.80;99.90;;;;;;5071646;28;20325;-75
2021/11/16 05:48:31;;;;;;;;;;;3.70;99.90;;;;;;5071599;28;20335;-75
2021/11/16 05:50:56;;;;;;;;;;;3.70;99.90;;;;;;5058800;28;19939;-75
2021/11/16 05:53:22;;;;;;;;;;;3.70;99.90;;;;;;5091606;28;19912;-75
2021/11/16 05:55:47;;;;;;;;;;;3.70;99.90;;;;;;5091800;28;20360;-75
2021/11/16 05:58:17;;;;;;;;;;;3.70;99.90;;;;;;5091707;28;19915;-75
2021/11/16 06:00:43;;;;;;;;;;;3.70;99.90;;;;;;5091210;28;19914;-75
2021/11/16 06:03:08;;;;;;;;;;;3.80;99.90;;;;;;5091745;28;19912;-75
2021/11/16 06:05:34;;;;;;;;;;;3.90;99.90;;;;;;5091950;28;20326;-75
2021/11/16 06:07:59;;;;;;;;;;;3.90;99.90;;;;;;5085022;28;19915;-75
2021/11/16 06:10:25;;;;;;;;;;;3.90;99.90;;;;;;5070401;28;19985;-75
2021/11/16 06:12:50;;;;;;;;;;;3.90;99.90;;;;;;5071153;28;19915;-74
2021/11/16 06:15:16;;;;;;;;;;;3.90;99.90;;;;;;5071368;28;19915;-74
2021/11/16 06:17:42;;;;;;;;;;;3.90;99.90;;;;;;5071336;28;19909;-75
2021/11/16 06:20:08;;;;;;;;;;;3.90;99.90;;;;;;5070870;28;19908;-74
2021/11/16 06:22:34;;;;;;;;;;;3.90;99.90;;;;;;5070265;28;20264;-74
2021/11/16 06:24:59;;;;;;;;;;;3.80;99.90;;;;;;5071113;28;19908;-74
2021/11/16 06:27:24;;;;;;;;;;;3.80;99.90;;;;;;5071011;28;19930;-74
2021/11/16 06:29:50;;;;;;;;;;;3.70;99.90;;;;;;5070822;28;19916;-75
2021/11/16 06:32:16;;;;;;;;;;;3.80;99.90;;;;;;5071827;28;19908;-75
2021/11/16 06:34:41;;;;;;;;;;;3.80;99.90;;;;;;5072396;28;19912;-74
2021/11/16 06:37:07;;;;;;;;;;;3.80;99.90;;;;;;5071254;28;19961;-75
2021/11/16 06:39:32;;;;;;;;;;;3.80;99.90;;;;;;5089469;28;19911;-75
2021/11/16 06:42:01;;;;;;;;;;;3.90;99.90;;;;;;5066437;28;19912;-75
2021/11/16 06:44:27;;;;;;;;;;;3.90;99.90;;;;;;5072169;28;20294;-75
2021/11/16 06:46:53;;;;;;;;;;;4.00;99.90;;;;;;5071860;28;19913;-75
2021/11/16 06:49:19;;;;;;;;;;;4.00;99.90;;;;;;5053218;28;20002;-75
2021/11/16 06:51:46;;;;;;;;;;;4.00;99.90;;;;;;5070929;28;19951;-75
2021/11/16 06:54:12;;;;;;;;;;;4.00;99.90;;;;;;5053177;28;19917;-74
2021/11/16 06:56:39;;;;;;;;;;;4.00;99.90;;;;;;5053037;28;20328;-75
2021/11/16 06:59:04;;;;;;;;;;;4.00;99.90;;;;;;5071175;28;19909;-75
2021/11/16 07:01:30;;;;;;;;;;;4.00;99.90;;;;;;5070369;28;19909;-75
2021/11/16 07:04:01;;;;;;;;;;;4.00;99.90;;;;;;5071056;28;19913;-74
2021/11/16 07:06:28;;;;;;;;;;;4.00;99.90;;;;;;5070927;28;19916;-75
2021/11/16 07:08:55;;;;;;;;;;;3.90;99.90;;;;;;5070756;28;19908;-74
2021/11/16 07:11:21;;;;;;;;;;;3.80;99.90;;;;;;5070580;28;19923;-74
2021/11/16 07:14:00;;;;;;;;;;;3.80;99.90;;;;;;5072658;28;19914;-74
2021/11/16 07:16:27;;;;;;;;;;;3.80;99.90;;;;;;5090954;28;19944;-75
2021/11/16 07:18:53;;;;;;;;;;;3.80;99.90;;;;;;5072943;28;19912;-74
2021/11/16 07:21:20;;;;;;;;;;;3.90;99.90;;;;;;5072516;28;19957;-74
2021/11/16 07:23:46;;;;;;;;;;;4.00;99.90;;;;;;5090634;28;19912;-75
2021/11/16 07:26:16;;;;;;;;;;;4.00;99.90;;;;;;5091160;28;19908;-75
2021/11/16 07:28:48;;;;;;;;;;;4.00;99.90;;;;;;5091049;28;20324;-75
2021/11/16 07:31:21;;;;;;;;;;;4.10;99.90;;;;;;5090776;28;20322;-75
2021/11/16 07:33:47;;;;;;;;;;;4.10;99.90;;;;;;5091843;28;19914;-75
2021/11/16 07:36:15;;;;;;;;;;;4.10;99.90;;;;;;5091399;28;19908;-75
2021/11/16 07:38:42;;;;;;;;;;;4.10;99.90;;;;;;5089378;28;19908;-75
2021/11/16 07:41:08;;;;;;;;;;;4.10;99.90;;;;;;5077841;28;19999;-75
2021/11/16 07:43:33;;;;;;;;;;;4.10;99.90;;;;;;5091107;28;20368;-75
2021/11/16 07:45:59;;;;;;;;;;;4.10;99.90;;;;;;5094403;28;19908;-74
2021/11/16 07:48:27;;;;;;;;;;;4.20;99.90;;;;;;5094428;28;19995;-75
2021/11/16 07:50:57;;;;;;;;;;;4.20;99.90;;;;;;5093798;28;20392;-75
2021/11/16 07:53:22;;;;;;;;;;;4.20;99.90;;;;;;5094324;28;20341;-75
2021/11/16 07:55:51;;;;;;;;;;;4.20;99.90;;;;;;5094235;28;19908;-75
2021/11/16 07:58:16;;;;;;;;;;;4.20;99.90;;;;;;5093829;28;20002;-75
2021/11/16 08:00:44;;;;;;;;;;;4.20;99.90;;;;;;5093697;28;20001;-76
2021/11/16 08:03:13;;;;;;;;;;;4.20;99.90;;;;;;5093766;28;19912;-76
2021/11/16 08:06:07;;;;;;;;;;;4.20;99.90;;;;;;5088456;28;19913;-75
2021/11/16 08:11:07;;;;;;;;;;;4.10;99.90;;;;;;5073070;28;19921;-75
2021/11/16 08:13:34;;;;;;;;;;;4.10;99.90;;;;;;5092130;28;20445;-75
2021/11/16 08:16:06;;;;;;;;;;;4.10;99.90;;;;;;5093758;28;19912;-76
2021/11/16 08:18:46;;;;;;;;;;;4.20;99.90;;;;;;5093839;28;19951;-75
2021/11/16 08:21:13;;;;;;;;;;;4.30;99.90;;;;;;5092325;28;19936;-76
2021/11/16 08:23:49;;;;;;;;;;;4.30;99.90;;;;;;5090726;28;19912;-76
2021/11/16 08:26:15;;;;;;;;;;;4.30;99.90;;;;;;5092738;28;19996;-75
2021/11/16 08:28:40;;;;;;;;;;;4.30;99.90;;;;;;5093601;28;19908;-75
2021/11/16 08:31:08;;;;;;;;;;;4.30;99.90;;;;;;5093191;28;20014;-77
2021/11/16 08:33:34;;;;;;;;;;;4.40;99.90;;;;;;5093433;28;19962;-77
2021/11/16 08:36:00;;;;;;;;;;;4.40;99.90;;;;;;5093484;28;19923;-75
2021/11/16 08:38:30;;;;;;;;;;;4.30;99.90;;;;;;5089895;28;19914;-75
2021/11/16 08:40:58;;;;;;;;;;;4.20;99.90;;;;;;5089951;28;19912;-75
2021/11/16 08:43:35;;;;;;;;;;;4.30;99.90;;;;;;5093004;28;19919;-75
2021/11/16 08:46:03;;;;;;;;;;;4.30;99.90;;;;;;5092040;28;19908;-77
2021/11/16 08:48:28;;;;;;;;;;;4.40;99.90;;;;;;5074883;28;19969;-76
2021/11/16 08:50:56;;;;;;;;;;;4.40;99.90;;;;;;5091338;28;19912;-73
2021/11/16 08:53:22;;;;;;;;;;;4.40;99.90;;;;;;5089282;28;20255;-74
2021/11/16 08:55:48;;;;;;;;;;;4.40;99.90;;;;;;5092803;28;19938;-74
2021/11/16 08:58:15;;;;;;;;;;;4.40;99.90;;;;;;5092757;28;20290;-74
2021/11/16 09:00:49;;;;;;;;;;;4.30;99.90;;;;;;5090533;28;20366;-75
2021/11/16 09:03:16;;;;;;;;;;;4.30;99.90;;;;;;5084578;28;20394;-74
2021/11/16 09:05:45;;;;;;;;;;;4.40;99.90;;;;;;5084626;28;20013;-77
2021/11/16 09:08:18;;;;;;;;;;;4.40;99.90;;;;;;5087340;28;19908;-74
2021/11/16 09:10:45;;;;;;;;;;;4.50;99.90;;;;;;5086239;28;20390;-74
2021/11/16 09:13:12;;;;;;;;;;;4.40;99.90;;;;;;5092190;28;20393;-74
2021/11/16 09:15:42;;;;;;;;;;;4.40;99.90;;;;;;5092654;28;19968;-74
2021/11/16 09:18:13;;;;;;;;;;;4.40;99.90;;;;;;5092119;28;19912;-74
2021/11/16 09:20:38;;;;;;;;;;;4.40;99.90;;;;;;5091528;28;19920;-74
2021/11/16 09:23:05;;;;;;;;;;;4.50;99.90;;;;;;5083775;28;19924;-74
2021/11/16 09:25:32;;;;;;;;;;;4.50;99.90;;;;;;5086063;28;20274;-74
2021/11/16 09:28:11;;;;;;;;;;;4.50;99.90;;;;;;5092299;28;19914;-77
2021/11/16 09:30:39;;;;;;;;;;;4.60;99.90;;;;;;5091465;28;19961;-74
2021/11/16 09:33:10;;;;;;;;;;;4.60;99.90;;;;;;5091692;28;20056;-74
2021/11/16 09:35:43;;;;;;;;;;;4.60;99.90;;;;;;5091926;28;19908;-75
2021/11/16 09:38:09;;;;;;;;;;;4.60;99.90;;;;;;5091841;28;19908;-74
2021/11/16 09:40:35;;;;;;;;;;;4.60;99.90;;;;;;5091426;28;19966;-75
2021/11/16 09:43:01;;;;;;;;;;;4.60;99.90;;;;;;5091927;28;19912;-75
2021/11/16 09:45:27;;;;;;;;;;;4.50;99.90;;;;;;5091687;28;19991;-75
2021/11/16 09:47:53;;;;;;;;;;;4.50;99.90;;;;;;5091792;28;19999;-75
2021/11/16 09:50:23;;;;;;;;;;;4.50;99.90;;;;;;5091388;28;19958;-75
2021/11/16 09:52:51;;;;;;;;;;;4.50;99.90;;;;;;5088052;28;20449;-75
2021/11/16 09:55:16;;;;;;;;;;;4.50;99.90;;;;;;5091398;28;19954;-76
2021/11/16 09:57:42;;;;;;;;;;;4.60;99.90;;;;;;5091378;28;19952;-75
2021/11/16 10:00:17;;;;;;;;;;;4.50;99.90;;;;;;5090905;28;19908;-75
2021/11/16 10:02:45;;;;;;;;;;;4.70;99.90;;;;;;5091668;28;19908;-75
2021/11/16 10:05:19;;;;;;;;;;;4.70;99.90;;;;;;5090124;28;19912;-76
2021/11/16 10:07:45;;;;;;;;;;;4.80;99.90;;;;;;5091622;28;20003;-77
2021/11/16 10:10:11;;;;;;;;;;;4.80;99.90;;;;;;5090763;28;19917;-75
2021/11/16 10:12:42;;;;;;;;;;;4.70;99.90;;;;;;5091160;28;19919;-75
2021/11/16 10:15:08;;;;;;;;;;;4.70;99.90;;;;;;5091304;28;19919;-75
2021/11/16 10:17:33;;;;;;;;;;;4.70;99.90;;;;;;5091335;28;20363;-75
2021/11/16 10:19:59;;;;;;;;;;;4.70;99.90;;;;;;5090704;28;19915;-77
2021/11/16 10:22:24;;;;;;;;;;;4.70;99.90;;;;;;5085304;28;19909;-76
2021/11/16 10:24:50;;;;;;;;;;;4.70;99.90;;;;;;5083755;28;19973;-74
2021/11/16 10:27:15;;;;;;;;;;;4.70;99.90;;;;;;5085430;28;19912;-75
2021/11/16 10:29:41;;;;;;;;;;;4.60;99.90;;;;;;5090857;28;19996;-75
2021/11/16 10:32:20;;;;;;;;;;;4.60;99.90;;;;;;5091326;28;19909;-76
2021/11/16 10:34:46;;;;;;;;;;;4.70;99.90;;;;;;5091147;28;20324;-75
2021/11/16 10:37:13;;;;;;;;;;;4.70;99.90;;;;;;5091115;28;19912;-75
2021/11/16 10:39:38;;;;;;;;;;;4.60;99.90;;;;;;5090473;28;19916;-75
2021/11/16 10:42:06;;;;;;;;;;;4.60;99.90;;;;;;5090872;28;19909;-75
2021/11/16 10:44:36;;;;;;;;;;;4.70;99.90;;;;;;5090862;28;20108;-75
2021/11/16 10:47:03;;;;;;;;;;;4.70;99.90;;;;;;5091140;28;19909;-75
2021/11/16 10:49:29;;;;;;;;;;;4.70;99.90;;;;;;5090974;28;19947;-75
2021/11/16 10:51:55;;;;;;;;;;;4.50;99.90;;;;;;5086911;28;19951;-75
2021/11/16 10:54:20;;;;;;;;;;;4.60;99.90;;;;;;5085389;28;19922;-75
2021/11/16 10:56:47;;;;;;;;;;;4.70;99.90;;;;;;5090936;28;19909;-77
2021/11/16 10:59:14;;;;;;;;;;;4.80;99.90;;;;;;5090844;28;20294;-75
2021/11/16 11:01:44;;;;;;;;;;;4.80;99.90;;;;;;5087285;28;19908;-78
2021/11/16 11:04:14;;;;;;;;;;;4.80;99.90;;;;;;5090424;28;19920;-78
2021/11/16 11:06:43;;;;;;;;;;;4.90;99.90;;;;;;5082876;28;19974;-75
2021/11/16 11:09:08;;;;;;;;;;;5.00;99.90;;;;;;5083130;28;19908;-75
2021/11/16 11:11:34;;;;;;;;;;;5.10;99.90;;;;;;5094334;28;20298;-75
2021/11/16 11:14:02;;;;;;;;;;;5.10;99.90;;;;;;5094491;28;19915;-75
2021/11/16 11:16:29;;;;;;;;;;;5.20;99.90;;;;;;5094614;28;19909;-75
2021/11/16 11:18:55;;;;;;;;;;;5.30;99.90;;;;;;5094665;28;20053;-78
2021/11/16 11:21:35;;;;;;;;;;;5.40;99.90;;;;;;5093339;28;19909;-75
2021/11/16 11:24:07;;;;;;;;;;;5.50;99.90;;;;;;5087274;28;20017;-75
2021/11/16 11:26:46;;;;;;;;;;;5.60;99.90;;;;;;5093405;28;19934;-78
2021/11/16 11:29:31;;;;;;;;;;;5.50;99.90;;;;;;5095031;28;19908;-75
2021/11/16 11:32:02;;;;;;;;;;;5.40;99.90;;;;;;5094190;28;19918;-75
2021/11/16 11:34:49;;;;;;;;;;;5.20;99.90;;;;;;5094144;28;19913;-75
2021/11/16 11:37:19;;;;;;;;;;;5.00;99.90;;;;;;5094302;28;19965;-78
2021/11/16 11:39:46;;;;;;;;;;;4.90;99.90;;;;;;5094353;28;20385;-77
2021/11/16 11:42:14;;;;;;;;;;;4.80;99.90;;;;;;5087277;28;19919;-75
2021/11/16 11:45:08;;;;;;;;;;;4.80;99.90;;;;;;5075905;28;19916;-75
2021/11/16 11:47:35;;;;;;;;;;;5.00;99.90;;;;;;5077185;28;19912;-75
2021/11/16 11:50:01;;;;;;;;;;;5.00;99.90;;;;;;5093676;28;19952;-75
2021/11/16 11:52:26;;;;;;;;;;;5.00;99.90;;;;;;5087392;28;19915;-74
2021/11/16 11:54:52;;;;;;;;;;;5.10;99.90;;;;;;5090246;28;19908;-75
2021/11/16 11:57:18;;;;;;;;;;;5.20;99.90;;;;;;5076487;28;19908;-76
2021/11/16 11:59:43;;;;;;;;;;;5.20;99.90;;;;;;5076188;28;19955;-77
2021/11/16 12:02:09;;;;;;;;;;;5.20;99.90;;;;;;5093755;28;19915;-74
2021/11/16 12:04:36;;;;;;;;;;;5.20;99.90;;;;;;5094911;28;19916;-75
2021/11/16 12:07:03;;;;;;;;;;;5.20;99.90;;;;;;5090374;28;20278;-75
2021/11/16 12:09:30;;;;;;;;;;;5.20;99.90;;;;;;5092300;28;19962;-75
2021/11/16 12:11:56;;;;;;;;;;;5.20;99.90;;;;;;5093409;28;20340;-75
2021/11/16 12:14:32;;;;;;;;;;;5.20;99.90;;;;;;5093555;28;19909;-78
2021/11/16 12:17:00;;;;;;;;;;;5.30;99.90;;;;;;5093446;28;20002;-77
2021/11/16 12:19:49;;;;;;;;;;;5.20;99.90;;;;;;5093209;28;20374;-75
2021/11/16 12:22:21;;;;;;;;;;;5.20;99.90;;;;;;5089708;28;19976;-75
2021/11/16 12:24:47;;;;;;;;;;;5.10;99.90;;;;;;5086253;28;20385;-75
2021/11/16 12:27:13;;;;;;;;;;;5.10;99.90;;;;;;5092140;28;20032;-75
2021/11/16 12:29:40;;;;;;;;;;;5.20;99.90;;;;;;5093006;28;19908;-76
2021/11/16 12:32:15;;;;;;;;;;;5.10;99.90;;;;;;5092891;28;19955;-75
2021/11/16 12:34:48;;;;;;;;;;;5.10;99.90;;;;;;5093109;28;19908;-77
2021/11/16 12:37:36;;;;;;;;;;;5.00;99.90;;;;;;5093236;28;19953;-75
2021/11/16 12:40:06;;;;;;;;;;;5.10;99.90;;;;;;5092739;28;20039;-75
2021/11/16 12:42:32;;;;;;;;;;;5.10;99.90;;;;;;5092696;28;19915;-75
2021/11/16 12:44:59;;;;;;;;;;;5.10;99.90;;;;;;5092711;28;19912;-75
2021/11/16 12:47:26;;;;;;;;;;;5.10;99.90;;;;;;5092789;28;19917;-74
2021/11/16 12:49:53;;;;;;;;;;;5.00;99.90;;;;;;5092407;28;19908;-75
2021/11/16 12:52:20;;;;;;;;;;;5.10;99.90;;;;;;5092241;28;19986;-75
2021/11/16 12:54:45;;;;;;;;;;;5.10;99.90;;;;;;5091878;28;19908;-75
2021/11/16 12:57:16;;;;;;;;;;;5.10;99.90;;;;;;5092521;28;19950;-76
2021/11/16 12:59:45;;;;;;;;;;;5.10;99.90;;;;;;5092542;28;19908;-75
2021/11/16 13:02:27;;;;;;;;;;;5.10;99.90;;;;;;5086824;28;20327;-75
2021/11/16 13:04:54;;;;;;;;;;;5.20;99.90;;;;;;5069428;28;19920;-76
2021/11/16 13:07:24;;;;;;;;;;;5.20;99.90;;;;;;5088597;28;19914;-74
2021/11/16 13:10:10;;;;;;;;;;;5.20;99.90;;;;;;5087304;28;19919;-75
2021/11/16 13:12:39;;;;;;;;;;;5.10;99.90;;;;;;5091733;28;20286;-75
2021/11/16 13:15:07;;;;;;;;;;;5.10;99.90;;;;;;5092262;28;19908;-75
2021/11/16 13:17:52;;;;;;;;;;;5.00;99.90;;;;;;5074125;28;19916;-75
2021/11/16 13:20:26;;;;;;;;;;;5.00;99.90;;;;;;5091462;28;19912;-75
2021/11/16 13:22:53;;;;;;;;;;;5.00;99.90;;;;;;5089379;28;19916;-76
2021/11/16 13:25:38;;;;;;;;;;;5.00;99.90;;;;;;5089024;28;20088;-75
2021/11/16 13:28:04;;;;;;;;;;;5.00;99.90;;;;;;5091833;28;20055;-74
2021/11/16 13:30:30;;;;;;;;;;;5.00;99.90;;;;;;5091300;28;19908;-75
2021/11/16 13:32:55;;;;;;;;;;;5.00;99.90;;;;;;5091012;28;19912;-75
2021/11/16 13:35:21;;;;;;;;;;;5.00;99.90;;;;;;5092040;28;20115;-75
2021/11/16 13:37:51;;;;;;;;;;;4.90;99.90;;;;;;5091982;28;19958;-75
2021/11/16 13:40:21;;;;;;;;;;;4.90;99.90;;;;;;5091398;28;19908;-75
2021/11/16 13:42:50;;;;;;;;;;;5.00;99.90;;;;;;5073535;28;20432;-75
2021/11/16 13:45:15;;;;;;;;;;;5.10;99.90;;;;;;5091884;28;20290;-75
2021/11/16 13:47:45;;;;;;;;;;;5.10;99.90;;;;;;5091723;28;19908;-75
2021/11/16 13:50:20;;;;;;;;;;;5.10;99.90;;;;;;5090802;28;19961;-77
2021/11/16 13:52:52;;;;;;;;;;;5.10;99.90;;;;;;5086616;28;19919;-74
2021/11/16 13:55:21;;;;;;;;;;;5.10;99.90;;;;;;5090054;28;19909;-75
2021/11/16 13:57:48;;;;;;;;;;;5.20;99.90;;;;;;5090716;28;19951;-76
2021/11/16 14:00:19;;;;;;;;;;;5.20;99.90;;;;;;5090945;28;19922;-75
2021/11/16 14:02:52;;;;;;;;;;;5.20;99.90;;;;;;5091703;28;20148;-75
2021/11/16 14:05:19;;;;;;;;;;;5.20;99.90;;;;;;5089892;28;19912;-75
2021/11/16 14:07:51;;;;;;;;;;;5.10;99.90;;;;;;5085235;28;19915;-77
2021/11/16 14:10:16;;;;;;;;;;;5.00;99.90;;;;;;5090592;28;20367;-75
2021/11/16 14:12:43;;;;;;;;;;;4.90;99.90;;;;;;5085465;28;19916;-75
2021/11/16 14:15:14;;;;;;;;;;;4.90;99.90;;;;;;5091228;28;19908;-74
2021/11/16 14:17:40;;;;;;;;;;;4.90;99.90;;;;;;5091369;28;19915;-75
2021/11/16 14:20:05;;;;;;;;;;;4.90;99.90;;;;;;5090734;28;19912;-76
2021/11/16 14:22:31;;;;;;;;;;;4.90;99.90;;;;;;5091349;28;20366;-77
2021/11/16 14:24:57;;;;;;;;;;;4.90;99.90;;;;;;5084555;28;19918;-74
2021/11/16 14:27:23;;;;;;;;;;;4.90;99.90;;;;;;5073836;28;20007;-75
2021/11/16 14:29:49;;;;;;;;;;;4.90;99.90;;;;;;5077337;28;19915;-75
2021/11/16 14:32:19;;;;;;;;;;;5.00;99.90;;;;;;5091282;28;19908;-74
2021/11/16 14:34:44;;;;;;;;;;;4.90;99.90;;;;;;5091260;28;20003;-74
2021/11/16 14:37:09;;;;;;;;;;;4.90;99.90;;;;;;5091126;28;19959;-76
2021/11/16 14:39:36;;;;;;;;;;;4.90;99.90;;;;;;5087915;28;20371;-74
2021/11/16 14:42:04;;;;;;;;;;;4.80;99.90;;;;;;5067097;28;19908;-77
2021/11/16 14:44:50;;;;;;;;;;;4.80;99.90;;;;;;5089935;28;19913;-75
2021/11/16 14:47:19;;;;;;;;;;;4.90;99.90;;;;;;5086621;28;19908;-75
2021/11/16 14:52:17;;;;;;;;;;;4.80;99.90;;;;;;5090985;28;19908;-75
2021/11/16 14:54:43;;;;;;;;;;;4.80;99.90;;;;;;5091005;28;19977;-75